sensor_id;sensor_type;location;lat;lon;timestamp;P1;durP1;ratioP1;P2;durP2;ratioP2
84591;SDS011;74826;50.812;16.038;2024-03-02T00:01:53;85.97;;;29.75;;
84591;SDS011;74826;50.812;16.038;2024-03-02T00:04:19;76.50;;;28.90;;
84591;SDS011;74826;50.812;16.038;2024-03-02T00:06:44;76.68;;;28.13;;
84591;SDS011;74826;50.812;16.038;2024-03-02T00:09:10;84.38;;;27.98;;
84591;SDS011;74826;50.812;16.038;2024-03-02T00:11:37;79.90;;;29.65;;
84591;SDS011;74826;50.812;16.038;2024-03-02T00:14:03;79.15;;;27.98;;
84591;SDS011;74826;50.812;16.038;2024-03-02T00:19:01;84.63;;;27.95;;
84591;SDS011;74826;50.812;16.038;2024-03-02T00:21:27;100.18;;;32.47;;
84591;SDS011;74826;50.812;16.038;2024-03-02T00:23:55;88.50;;;30.73;;
84591;SDS011;74826;50.812;16.038;2024-03-02T00:26:22;92.15;;;30.33;;
84591;SDS011;74826;50.812;16.038;2024-03-02T00:28:47;100.18;;;32.85;;
84591;SDS011;74826;50.812;16.038;2024-03-02T00:31:15;104.22;;;32.20;;
84591;SDS011;74826;50.812;16.038;2024-03-02T00:33:45;111.10;;;35.42;;
84591;SDS011;74826;50.812;16.038;2024-03-02T00:36:12;124.03;;;36.92;;
84591;SDS011;74826;50.812;16.038;2024-03-02T00:41:12;122.45;;;40.60;;
84591;SDS011;74826;50.812;16.038;2024-03-02T00:43:56;123.85;;;39.67;;
84591;SDS011;74826;50.812;16.038;2024-03-02T00:46:23;117.90;;;37.90;;
84591;SDS011;74826;50.812;16.038;2024-03-02T00:51:19;141.63;;;39.50;;
84591;SDS011;74826;50.812;16.038;2024-03-02T00:53:48;126.30;;;40.35;;
84591;SDS011;74826;50.812;16.038;2024-03-02T00:56:14;145.90;;;46.63;;
84591;SDS011;74826;50.812;16.038;2024-03-02T00:58:40;138.13;;;41.97;;
84591;SDS011;74826;50.812;16.038;2024-03-02T01:01:06;133.95;;;41.80;;
84591;SDS011;74826;50.812;16.038;2024-03-02T01:03:32;138.80;;;41.58;;
84591;SDS011;74826;50.812;16.038;2024-03-02T01:05:58;129.15;;;40.05;;
84591;SDS011;74826;50.812;16.038;2024-03-02T01:08:24;145.38;;;44.28;;
84591;SDS011;74826;50.812;16.038;2024-03-02T01:10:50;127.88;;;39.90;;
84591;SDS011;74826;50.812;16.038;2024-03-02T01:13:15;131.35;;;41.92;;
84591;SDS011;74826;50.812;16.038;2024-03-02T01:15:41;125.07;;;37.83;;
84591;SDS011;74826;50.812;16.038;2024-03-02T01:18:06;141.77;;;38.90;;
84591;SDS011;74826;50.812;16.038;2024-03-02T01:20:32;115.97;;;35.13;;
84591;SDS011;74826;50.812;16.038;2024-03-02T01:22:58;130.25;;;38.17;;
84591;SDS011;74826;50.812;16.038;2024-03-02T01:25:24;133.75;;;42.70;;
84591;SDS011;74826;50.812;16.038;2024-03-02T01:27:50;124.78;;;40.38;;
84591;SDS011;74826;50.812;16.038;2024-03-02T01:30:15;124.15;;;37.08;;
84591;SDS011;74826;50.812;16.038;2024-03-02T01:32:41;115.30;;;38.45;;
84591;SDS011;74826;50.812;16.038;2024-03-02T01:35:06;130.73;;;40.83;;
84591;SDS011;74826;50.812;16.038;2024-03-02T01:39:57;115.10;;;38.47;;
84591;SDS011;74826;50.812;16.038;2024-03-02T01:42:23;124.28;;;38.85;;
84591;SDS011;74826;50.812;16.038;2024-03-02T01:44:49;129.07;;;38.17;;
84591;SDS011;74826;50.812;16.038;2024-03-02T01:47:14;124.70;;;40.63;;
84591;SDS011;74826;50.812;16.038;2024-03-02T01:49:40;129.88;;;38.90;;
84591;SDS011;74826;50.812;16.038;2024-03-02T01:52:06;125.35;;;42.72;;
84591;SDS011;74826;50.812;16.038;2024-03-02T01:54:32;121.65;;;39.38;;
84591;SDS011;74826;50.812;16.038;2024-03-02T01:59:23;125.88;;;38.75;;
84591;SDS011;74826;50.812;16.038;2024-03-02T02:01:48;96.55;;;34.70;;
84591;SDS011;74826;50.812;16.038;2024-03-02T02:04:14;115.90;;;38.25;;
84591;SDS011;74826;50.812;16.038;2024-03-02T02:06:39;119.45;;;38.38;;
84591;SDS011;74826;50.812;16.038;2024-03-02T02:11:31;121.38;;;38.05;;
84591;SDS011;74826;50.812;16.038;2024-03-02T02:13:56;100.43;;;35.03;;
84591;SDS011;74826;50.812;16.038;2024-03-02T02:16:22;110.43;;;36.17;;
84591;SDS011;74826;50.812;16.038;2024-03-02T02:18:47;106.82;;;34.60;;
84591;SDS011;74826;50.812;16.038;2024-03-02T02:21:13;106.82;;;36.22;;
84591;SDS011;74826;50.812;16.038;2024-03-02T02:23:39;115.22;;;36.10;;
84591;SDS011;74826;50.812;16.038;2024-03-02T02:26:04;92.80;;;31.15;;
84591;SDS011;74826;50.812;16.038;2024-03-02T02:28:30;108.63;;;35.42;;
84591;SDS011;74826;50.812;16.038;2024-03-02T02:30:55;102.13;;;33.30;;
84591;SDS011;74826;50.812;16.038;2024-03-02T02:33:21;100.28;;;31.75;;
84591;SDS011;74826;50.812;16.038;2024-03-02T02:35:47;115.15;;;38.10;;
84591;SDS011;74826;50.812;16.038;2024-03-02T02:38:12;107.55;;;35.03;;
84591;SDS011;74826;50.812;16.038;2024-03-02T02:40:38;111.80;;;32.85;;
84591;SDS011;74826;50.812;16.038;2024-03-02T02:43:03;105.00;;;36.33;;
84591;SDS011;74826;50.812;16.038;2024-03-02T02:45:28;119.32;;;41.20;;
84591;SDS011;74826;50.812;16.038;2024-03-02T02:47:54;100.18;;;33.70;;
84591;SDS011;74826;50.812;16.038;2024-03-02T02:50:19;110.88;;;35.28;;
84591;SDS011;74826;50.812;16.038;2024-03-02T02:52:45;81.35;;;29.10;;
84591;SDS011;74826;50.812;16.038;2024-03-02T02:55:11;111.68;;;36.53;;
84591;SDS011;74826;50.812;16.038;2024-03-02T02:57:38;105.30;;;33.75;;
84591;SDS011;74826;50.812;16.038;2024-03-02T03:00:05;114.70;;;36.88;;
84591;SDS011;74826;50.812;16.038;2024-03-02T03:02:36;87.75;;;32.22;;
84591;SDS011;74826;50.812;16.038;2024-03-02T03:05:04;103.78;;;33.53;;
84591;SDS011;74826;50.812;16.038;2024-03-02T03:07:31;113.43;;;34.58;;
84591;SDS011;74826;50.812;16.038;2024-03-02T03:09:56;102.32;;;34.88;;
84591;SDS011;74826;50.812;16.038;2024-03-02T03:12:22;105.07;;;33.58;;
84591;SDS011;74826;50.812;16.038;2024-03-02T03:14:47;104.40;;;34.65;;
84591;SDS011;74826;50.812;16.038;2024-03-02T03:19:38;94.38;;;32.88;;
84591;SDS011;74826;50.812;16.038;2024-03-02T03:22:04;112.57;;;33.78;;
84591;SDS011;74826;50.812;16.038;2024-03-02T03:24:30;97.45;;;31.30;;
84591;SDS011;74826;50.812;16.038;2024-03-02T03:26:55;105.90;;;36.83;;
84591;SDS011;74826;50.812;16.038;2024-03-02T03:29:21;93.15;;;32.03;;
84591;SDS011;74826;50.812;16.038;2024-03-02T03:31:46;96.95;;;29.80;;
84591;SDS011;74826;50.812;16.038;2024-03-02T03:34:11;106.25;;;34.92;;
84591;SDS011;74826;50.812;16.038;2024-03-02T03:36:40;107.15;;;34.03;;
84591;SDS011;74826;50.812;16.038;2024-03-02T03:39:06;113.70;;;36.65;;
84591;SDS011;74826;50.812;16.038;2024-03-02T03:41:32;98.45;;;34.72;;
84591;SDS011;74826;50.812;16.038;2024-03-02T03:43:57;103.32;;;33.63;;
84591;SDS011;74826;50.812;16.038;2024-03-02T03:46:23;98.97;;;32.58;;
84591;SDS011;74826;50.812;16.038;2024-03-02T03:48:48;98.72;;;32.85;;
84591;SDS011;74826;50.812;16.038;2024-03-02T03:51:13;105.63;;;35.40;;
84591;SDS011;74826;50.812;16.038;2024-03-02T03:53:39;98.88;;;32.45;;
84591;SDS011;74826;50.812;16.038;2024-03-02T03:56:04;110.72;;;34.95;;
84591;SDS011;74826;50.812;16.038;2024-03-02T03:58:30;106.90;;;33.55;;
84591;SDS011;74826;50.812;16.038;2024-03-02T04:00:55;103.32;;;35.53;;
84591;SDS011;74826;50.812;16.038;2024-03-02T04:05:47;97.05;;;31.70;;
84591;SDS011;74826;50.812;16.038;2024-03-02T04:08:12;100.28;;;32.40;;
84591;SDS011;74826;50.812;16.038;2024-03-02T04:10:38;108.32;;;29.80;;
84591;SDS011;74826;50.812;16.038;2024-03-02T04:13:03;96.82;;;34.40;;
84591;SDS011;74826;50.812;16.038;2024-03-02T04:15:29;97.53;;;33.00;;
84591;SDS011;74826;50.812;16.038;2024-03-02T04:17:54;83.57;;;27.13;;
84591;SDS011;74826;50.812;16.038;2024-03-02T04:20:21;95.00;;;33.22;;
84591;SDS011;74826;50.812;16.038;2024-03-02T04:22:47;90.97;;;29.30;;
84591;SDS011;74826;50.812;16.038;2024-03-02T04:25:12;96.38;;;33.38;;
84591;SDS011;74826;50.812;16.038;2024-03-02T04:27:38;94.57;;;29.10;;
84591;SDS011;74826;50.812;16.038;2024-03-02T04:30:04;92.88;;;30.02;;
84591;SDS011;74826;50.812;16.038;2024-03-02T04:32:30;76.30;;;25.98;;
84591;SDS011;74826;50.812;16.038;2024-03-02T04:34:56;83.30;;;26.70;;
84591;SDS011;74826;50.812;16.038;2024-03-02T04:37:22;99.72;;;33.20;;
84591;SDS011;74826;50.812;16.038;2024-03-02T04:39:47;90.65;;;27.58;;
84591;SDS011;74826;50.812;16.038;2024-03-02T04:42:13;79.55;;;27.08;;
84591;SDS011;74826;50.812;16.038;2024-03-02T04:44:38;95.07;;;29.60;;
84591;SDS011;74826;50.812;16.038;2024-03-02T04:49:29;83.70;;;26.08;;
84591;SDS011;74826;50.812;16.038;2024-03-02T04:51:55;85.07;;;26.50;;
84591;SDS011;74826;50.812;16.038;2024-03-02T04:54:21;77.65;;;26.23;;
84591;SDS011;74826;50.812;16.038;2024-03-02T04:56:47;86.80;;;29.52;;
84591;SDS011;74826;50.812;16.038;2024-03-02T04:59:16;81.85;;;28.35;;
84591;SDS011;74826;50.812;16.038;2024-03-02T05:01:42;93.10;;;32.03;;
84591;SDS011;74826;50.812;16.038;2024-03-02T05:04:08;94.72;;;31.13;;
84591;SDS011;74826;50.812;16.038;2024-03-02T05:06:35;85.55;;;29.58;;
84591;SDS011;74826;50.812;16.038;2024-03-02T05:09:01;99.28;;;30.45;;
84591;SDS011;74826;50.812;16.038;2024-03-02T05:11:26;85.45;;;28.45;;
84591;SDS011;74826;50.812;16.038;2024-03-02T05:14:11;91.13;;;28.48;;
84591;SDS011;74826;50.812;16.038;2024-03-02T05:16:37;93.55;;;30.58;;
84591;SDS011;74826;50.812;16.038;2024-03-02T05:19:06;91.35;;;31.75;;
84591;SDS011;74826;50.812;16.038;2024-03-02T05:21:32;96.43;;;31.52;;
84591;SDS011;74826;50.812;16.038;2024-03-02T05:23:58;98.88;;;33.15;;
84591;SDS011;74826;50.812;16.038;2024-03-02T05:26:24;93.43;;;32.53;;
84591;SDS011;74826;50.812;16.038;2024-03-02T05:28:50;81.88;;;28.63;;
84591;SDS011;74826;50.812;16.038;2024-03-02T05:31:15;93.35;;;32.75;;
84591;SDS011;74826;50.812;16.038;2024-03-02T05:33:41;93.18;;;31.63;;
84591;SDS011;74826;50.812;16.038;2024-03-02T05:36:07;100.85;;;37.22;;
84591;SDS011;74826;50.812;16.038;2024-03-02T05:38:36;101.00;;;35.05;;
84591;SDS011;74826;50.812;16.038;2024-03-02T05:41:01;102.85;;;36.13;;
84591;SDS011;74826;50.812;16.038;2024-03-02T05:43:27;106.18;;;33.97;;
84591;SDS011;74826;50.812;16.038;2024-03-02T05:45:53;96.80;;;32.22;;
84591;SDS011;74826;50.812;16.038;2024-03-02T05:48:18;96.35;;;32.53;;
84591;SDS011;74826;50.812;16.038;2024-03-02T05:50:44;101.95;;;35.53;;
84591;SDS011;74826;50.812;16.038;2024-03-02T05:53:09;99.97;;;33.75;;
84591;SDS011;74826;50.812;16.038;2024-03-02T05:55:34;100.80;;;33.92;;
84591;SDS011;74826;50.812;16.038;2024-03-02T05:58:00;106.93;;;33.50;;
84591;SDS011;74826;50.812;16.038;2024-03-02T06:00:45;100.07;;;35.63;;
84591;SDS011;74826;50.812;16.038;2024-03-02T06:03:11;98.13;;;33.47;;
84591;SDS011;74826;50.812;16.038;2024-03-02T06:05:36;96.10;;;32.13;;
84591;SDS011;74826;50.812;16.038;2024-03-02T06:08:02;94.22;;;33.25;;
84591;SDS011;74826;50.812;16.038;2024-03-02T06:10:27;97.07;;;32.42;;
84591;SDS011;74826;50.812;16.038;2024-03-02T06:12:53;96.28;;;31.63;;
84591;SDS011;74826;50.812;16.038;2024-03-02T06:15:18;102.20;;;36.65;;
84591;SDS011;74826;50.812;16.038;2024-03-02T06:17:44;105.18;;;37.47;;
84591;SDS011;74826;50.812;16.038;2024-03-02T06:20:09;100.90;;;34.72;;
84591;SDS011;74826;50.812;16.038;2024-03-02T06:22:35;102.00;;;32.90;;
84591;SDS011;74826;50.812;16.038;2024-03-02T06:25:00;97.25;;;34.47;;
84591;SDS011;74826;50.812;16.038;2024-03-02T06:27:26;101.20;;;33.95;;
84591;SDS011;74826;50.812;16.038;2024-03-02T06:29:51;97.10;;;32.20;;
84591;SDS011;74826;50.812;16.038;2024-03-02T06:32:16;94.75;;;33.15;;
84591;SDS011;74826;50.812;16.038;2024-03-02T06:34:42;97.78;;;32.20;;
84591;SDS011;74826;50.812;16.038;2024-03-02T06:37:07;101.40;;;33.50;;
84591;SDS011;74826;50.812;16.038;2024-03-02T06:39:33;96.85;;;33.63;;
84591;SDS011;74826;50.812;16.038;2024-03-02T06:44:24;103.03;;;36.53;;
84591;SDS011;74826;50.812;16.038;2024-03-02T06:46:50;100.18;;;33.80;;
84591;SDS011;74826;50.812;16.038;2024-03-02T06:49:15;89.20;;;31.15;;
84591;SDS011;74826;50.812;16.038;2024-03-02T06:51:43;92.80;;;31.20;;
84591;SDS011;74826;50.812;16.038;2024-03-02T06:54:08;96.97;;;35.40;;
84591;SDS011;74826;50.812;16.038;2024-03-02T06:56:34;105.63;;;33.65;;
84591;SDS011;74826;50.812;16.038;2024-03-02T06:58:59;97.95;;;33.88;;
84591;SDS011;74826;50.812;16.038;2024-03-02T07:03:51;99.15;;;32.78;;
84591;SDS011;74826;50.812;16.038;2024-03-02T07:06:17;98.15;;;34.40;;
84591;SDS011;74826;50.812;16.038;2024-03-02T07:08:42;107.63;;;36.35;;
84591;SDS011;74826;50.812;16.038;2024-03-02T07:11:07;100.03;;;35.88;;
84591;SDS011;74826;50.812;16.038;2024-03-02T07:13:33;96.32;;;31.48;;
84591;SDS011;74826;50.812;16.038;2024-03-02T07:15:58;103.65;;;35.35;;
84591;SDS011;74826;50.812;16.038;2024-03-02T07:18:36;113.78;;;38.38;;
84591;SDS011;74826;50.812;16.038;2024-03-02T07:21:10;118.60;;;42.00;;
84591;SDS011;74826;50.812;16.038;2024-03-02T07:23:36;106.75;;;38.38;;
84591;SDS011;74826;50.812;16.038;2024-03-02T07:26:01;105.75;;;38.63;;
84591;SDS011;74826;50.812;16.038;2024-03-02T07:28:28;103.82;;;32.47;;
84591;SDS011;74826;50.812;16.038;2024-03-02T07:31:00;97.63;;;32.28;;
84591;SDS011;74826;50.812;16.038;2024-03-02T07:33:29;106.00;;;36.22;;
84591;SDS011;74826;50.812;16.038;2024-03-02T07:38:21;92.50;;;30.52;;
84591;SDS011;74826;50.812;16.038;2024-03-02T07:40:47;92.47;;;31.50;;
84591;SDS011;74826;50.812;16.038;2024-03-02T07:43:15;99.85;;;31.42;;
84591;SDS011;74826;50.812;16.038;2024-03-02T07:45:42;91.95;;;27.88;;
84591;SDS011;74826;50.812;16.038;2024-03-02T07:48:07;86.63;;;29.45;;
84591;SDS011;74826;50.812;16.038;2024-03-02T07:50:33;87.50;;;28.25;;
84591;SDS011;74826;50.812;16.038;2024-03-02T07:53:00;94.45;;;30.85;;
84591;SDS011;74826;50.812;16.038;2024-03-02T07:55:26;79.63;;;28.90;;
84591;SDS011;74826;50.812;16.038;2024-03-02T07:57:51;75.18;;;25.20;;
84591;SDS011;74826;50.812;16.038;2024-03-02T08:00:17;88.80;;;29.75;;
84591;SDS011;74826;50.812;16.038;2024-03-02T08:02:42;84.18;;;28.27;;
84591;SDS011;74826;50.812;16.038;2024-03-02T08:05:08;86.32;;;28.60;;
84591;SDS011;74826;50.812;16.038;2024-03-02T08:07:33;79.38;;;26.00;;
84591;SDS011;74826;50.812;16.038;2024-03-02T08:09:59;72.43;;;23.13;;
84591;SDS011;74826;50.812;16.038;2024-03-02T08:14:50;71.82;;;23.83;;
84591;SDS011;74826;50.812;16.038;2024-03-02T08:17:16;76.80;;;25.98;;
84591;SDS011;74826;50.812;16.038;2024-03-02T08:19:42;81.32;;;27.50;;
84591;SDS011;74826;50.812;16.038;2024-03-02T08:22:07;70.03;;;23.33;;
84591;SDS011;74826;50.812;16.038;2024-03-02T08:24:33;78.75;;;28.70;;
84591;SDS011;74826;50.812;16.038;2024-03-02T08:26:59;78.70;;;24.55;;
84591;SDS011;74826;50.812;16.038;2024-03-02T08:29:25;81.63;;;25.83;;
84591;SDS011;74826;50.812;16.038;2024-03-02T08:31:50;77.57;;;25.35;;
84591;SDS011;74826;50.812;16.038;2024-03-02T08:34:16;83.20;;;26.58;;
84591;SDS011;74826;50.812;16.038;2024-03-02T08:39:07;80.20;;;26.48;;
84591;SDS011;74826;50.812;16.038;2024-03-02T08:41:40;77.57;;;25.95;;
84591;SDS011;74826;50.812;16.038;2024-03-02T08:44:07;88.70;;;29.05;;
84591;SDS011;74826;50.812;16.038;2024-03-02T08:46:32;65.22;;;22.35;;
84591;SDS011;74826;50.812;16.038;2024-03-02T08:48:58;76.72;;;25.42;;
84591;SDS011;74826;50.812;16.038;2024-03-02T08:53:49;81.95;;;25.75;;
84591;SDS011;74826;50.812;16.038;2024-03-02T08:58:40;72.60;;;23.77;;
84591;SDS011;74826;50.812;16.038;2024-03-02T09:03:33;73.10;;;21.55;;
84591;SDS011;74826;50.812;16.038;2024-03-02T09:05:59;79.72;;;27.50;;
84591;SDS011;74826;50.812;16.038;2024-03-02T09:10:51;72.40;;;25.55;;
84591;SDS011;74826;50.812;16.038;2024-03-02T09:15:42;70.50;;;24.88;;
84591;SDS011;74826;50.812;16.038;2024-03-02T09:20:33;87.43;;;28.65;;
84591;SDS011;74826;50.812;16.038;2024-03-02T09:25:24;81.03;;;25.95;;
84591;SDS011;74826;50.812;16.038;2024-03-02T09:30:16;86.25;;;27.55;;
84591;SDS011;74826;50.812;16.038;2024-03-02T09:35:06;72.60;;;26.45;;
84591;SDS011;74826;50.812;16.038;2024-03-02T09:39:57;78.40;;;25.17;;
84591;SDS011;74826;50.812;16.038;2024-03-02T09:42:24;77.88;;;27.95;;
84591;SDS011;74826;50.812;16.038;2024-03-02T09:44:50;85.00;;;26.83;;
84591;SDS011;74826;50.812;16.038;2024-03-02T09:47:17;78.93;;;28.98;;
84591;SDS011;74826;50.812;16.038;2024-03-02T09:52:08;90.22;;;29.73;;
84591;SDS011;74826;50.812;16.038;2024-03-02T09:54:35;78.90;;;26.60;;
84591;SDS011;74826;50.812;16.038;2024-03-02T09:59:29;74.22;;;23.15;;
84591;SDS011;74826;50.812;16.038;2024-03-02T10:04:25;75.38;;;26.65;;
84591;SDS011;74826;50.812;16.038;2024-03-02T10:06:51;86.32;;;30.55;;
84591;SDS011;74826;50.812;16.038;2024-03-02T10:09:34;88.25;;;30.02;;
84591;SDS011;74826;50.812;16.038;2024-03-02T10:14:32;90.97;;;31.90;;
84591;SDS011;74826;50.812;16.038;2024-03-02T10:19:40;99.88;;;36.83;;
84591;SDS011;74826;50.812;16.038;2024-03-02T10:24:36;88.75;;;30.58;;
84591;SDS011;74826;50.812;16.038;2024-03-02T10:27:06;85.05;;;29.45;;
84591;SDS011;74826;50.812;16.038;2024-03-02T10:29:39;81.80;;;28.30;;
84591;SDS011;74826;50.812;16.038;2024-03-02T10:32:06;82.72;;;28.95;;
84591;SDS011;74826;50.812;16.038;2024-03-02T10:34:35;96.70;;;33.17;;
84591;SDS011;74826;50.812;16.038;2024-03-02T10:37:01;91.65;;;32.22;;
84591;SDS011;74826;50.812;16.038;2024-03-02T10:41:51;89.60;;;32.22;;
84591;SDS011;74826;50.812;16.038;2024-03-02T10:44:18;92.35;;;29.88;;
84591;SDS011;74826;50.812;16.038;2024-03-02T10:49:10;73.78;;;26.45;;
84591;SDS011;74826;50.812;16.038;2024-03-02T10:54:02;89.40;;;30.10;;
84591;SDS011;74826;50.812;16.038;2024-03-02T10:56:41;92.07;;;31.70;;
84591;SDS011;74826;50.812;16.038;2024-03-02T10:59:26;85.97;;;28.92;;
84591;SDS011;74826;50.812;16.038;2024-03-02T11:02:04;83.80;;;30.30;;
84591;SDS011;74826;50.812;16.038;2024-03-02T11:04:32;76.93;;;28.10;;
84591;SDS011;74826;50.812;16.038;2024-03-02T11:09:30;82.90;;;28.92;;
84591;SDS011;74826;50.812;16.038;2024-03-02T11:16:50;52.22;;;18.48;;
84591;SDS011;74826;50.812;16.038;2024-03-02T11:19:17;65.53;;;20.83;;
84591;SDS011;74826;50.812;16.038;2024-03-02T11:21:43;58.22;;;21.58;;
84591;SDS011;74826;50.812;16.038;2024-03-02T11:32:00;57.85;;;18.88;;
84591;SDS011;74826;50.812;16.038;2024-03-02T11:36:55;63.30;;;24.60;;
84591;SDS011;74826;50.812;16.038;2024-03-02T11:39:21;49.03;;;17.85;;
84591;SDS011;74826;50.812;16.038;2024-03-02T11:41:46;56.03;;;21.15;;
84591;SDS011;74826;50.812;16.038;2024-03-02T11:46:39;47.25;;;17.90;;
84591;SDS011;74826;50.812;16.038;2024-03-02T11:49:04;57.53;;;20.27;;
84591;SDS011;74826;50.812;16.038;2024-03-02T11:51:31;59.40;;;22.38;;
84591;SDS011;74826;50.812;16.038;2024-03-02T11:53:59;60.70;;;22.92;;
84591;SDS011;74826;50.812;16.038;2024-03-02T11:56:28;59.05;;;19.55;;
84591;SDS011;74826;50.812;16.038;2024-03-02T11:58:55;61.10;;;22.05;;
84591;SDS011;74826;50.812;16.038;2024-03-02T12:01:22;62.17;;;22.88;;
84591;SDS011;74826;50.812;16.038;2024-03-02T12:03:48;90.78;;;31.08;;
84591;SDS011;74826;50.812;16.038;2024-03-02T12:06:14;52.38;;;21.15;;
84591;SDS011;74826;50.812;16.038;2024-03-02T12:08:40;53.85;;;20.05;;
84591;SDS011;74826;50.812;16.038;2024-03-02T12:11:05;72.78;;;24.65;;
84591;SDS011;74826;50.812;16.038;2024-03-02T12:13:31;69.55;;;25.55;;
84591;SDS011;74826;50.812;16.038;2024-03-02T12:15:58;60.63;;;19.55;;
84591;SDS011;74826;50.812;16.038;2024-03-02T12:18:24;67.55;;;21.63;;
84591;SDS011;74826;50.812;16.038;2024-03-02T12:20:50;60.55;;;22.55;;
84591;SDS011;74826;50.812;16.038;2024-03-02T12:23:18;60.00;;;22.30;;
84591;SDS011;74826;50.812;16.038;2024-03-02T12:25:43;51.50;;;20.10;;
84591;SDS011;74826;50.812;16.038;2024-03-02T12:28:10;57.55;;;21.35;;
84591;SDS011;74826;50.812;16.038;2024-03-02T12:30:36;64.13;;;24.88;;
84591;SDS011;74826;50.812;16.038;2024-03-02T12:33:01;57.92;;;21.67;;
84591;SDS011;74826;50.812;16.038;2024-03-02T12:35:27;59.42;;;22.83;;
84591;SDS011;74826;50.812;16.038;2024-03-02T12:37:53;58.20;;;21.45;;
84591;SDS011;74826;50.812;16.038;2024-03-02T12:40:19;53.67;;;19.52;;
84591;SDS011;74826;50.812;16.038;2024-03-02T12:42:47;58.53;;;21.67;;
84591;SDS011;74826;50.812;16.038;2024-03-02T12:45:14;58.03;;;20.90;;
84591;SDS011;74826;50.812;16.038;2024-03-02T12:47:40;44.42;;;16.98;;
84591;SDS011;74826;50.812;16.038;2024-03-02T12:50:07;50.42;;;18.65;;
84591;SDS011;74826;50.812;16.038;2024-03-02T12:52:34;52.58;;;17.42;;
84591;SDS011;74826;50.812;16.038;2024-03-02T12:55:00;45.03;;;16.55;;
84591;SDS011;74826;50.812;16.038;2024-03-02T12:57:28;50.25;;;18.10;;
84591;SDS011;74826;50.812;16.038;2024-03-02T13:00:13;47.55;;;18.40;;
84591;SDS011;74826;50.812;16.038;2024-03-02T13:02:42;48.25;;;19.20;;
84591;SDS011;74826;50.812;16.038;2024-03-02T13:05:08;49.55;;;18.38;;
84591;SDS011;74826;50.812;16.038;2024-03-02T13:07:37;51.85;;;17.88;;
84591;SDS011;74826;50.812;16.038;2024-03-02T13:10:03;50.30;;;17.85;;
84591;SDS011;74826;50.812;16.038;2024-03-02T13:12:29;48.90;;;17.73;;
84591;SDS011;74826;50.812;16.038;2024-03-02T13:14:57;50.78;;;18.95;;
84591;SDS011;74826;50.812;16.038;2024-03-02T13:17:23;59.65;;;19.10;;
84591;SDS011;74826;50.812;16.038;2024-03-02T13:19:55;59.47;;;20.33;;
84591;SDS011;74826;50.812;16.038;2024-03-02T13:22:21;48.58;;;18.88;;
84591;SDS011;74826;50.812;16.038;2024-03-02T13:24:48;46.55;;;17.92;;
84591;SDS011;74826;50.812;16.038;2024-03-02T13:27:14;43.78;;;16.45;;
84591;SDS011;74826;50.812;16.038;2024-03-02T13:29:41;55.22;;;18.60;;
84591;SDS011;74826;50.812;16.038;2024-03-02T13:32:06;48.42;;;17.77;;
84591;SDS011;74826;50.812;16.038;2024-03-02T13:36:57;55.40;;;18.10;;
84591;SDS011;74826;50.812;16.038;2024-03-02T13:41:48;50.42;;;18.35;;
84591;SDS011;74826;50.812;16.038;2024-03-02T13:44:18;50.35;;;16.15;;
84591;SDS011;74826;50.812;16.038;2024-03-02T13:46:44;49.95;;;17.90;;
84591;SDS011;74826;50.812;16.038;2024-03-02T13:49:11;73.07;;;23.23;;
84591;SDS011;74826;50.812;16.038;2024-03-02T13:51:36;57.30;;;20.33;;
84591;SDS011;74826;50.812;16.038;2024-03-02T13:56:28;56.65;;;19.67;;
84591;SDS011;74826;50.812;16.038;2024-03-02T14:01:19;55.25;;;21.50;;
84591;SDS011;74826;50.812;16.038;2024-03-02T14:06:11;63.92;;;21.67;;
84591;SDS011;74826;50.812;16.038;2024-03-02T14:08:37;56.42;;;20.50;;
84591;SDS011;74826;50.812;16.038;2024-03-02T14:13:28;56.28;;;22.23;;
84591;SDS011;74826;50.812;16.038;2024-03-02T14:15:54;48.88;;;17.52;;
84591;SDS011;74826;50.812;16.038;2024-03-02T14:18:19;59.45;;;20.95;;
84591;SDS011;74826;50.812;16.038;2024-03-02T14:20:46;54.75;;;19.83;;
84591;SDS011;74826;50.812;16.038;2024-03-02T14:23:17;54.15;;;19.88;;
84591;SDS011;74826;50.812;16.038;2024-03-02T14:25:42;55.75;;;19.70;;
84591;SDS011;74826;50.812;16.038;2024-03-02T14:30:34;50.22;;;21.25;;
84591;SDS011;74826;50.812;16.038;2024-03-02T14:35:25;57.72;;;20.77;;
84591;SDS011;74826;50.812;16.038;2024-03-02T14:37:50;48.58;;;18.02;;
84591;SDS011;74826;50.812;16.038;2024-03-02T14:42:41;49.53;;;20.52;;
84591;SDS011;74826;50.812;16.038;2024-03-02T14:45:09;48.85;;;19.17;;
84591;SDS011;74826;50.812;16.038;2024-03-02T14:47:34;53.60;;;21.63;;
84591;SDS011;74826;50.812;16.038;2024-03-02T14:52:26;65.20;;;24.73;;
84591;SDS011;74826;50.812;16.038;2024-03-02T14:57:16;86.88;;;30.52;;
84591;SDS011;74826;50.812;16.038;2024-03-02T14:59:42;78.93;;;29.40;;
84591;SDS011;74826;50.812;16.038;2024-03-02T15:02:08;90.63;;;33.00;;
84591;SDS011;74826;50.812;16.038;2024-03-02T15:04:34;64.72;;;24.15;;
84591;SDS011;74826;50.812;16.038;2024-03-02T15:06:59;57.88;;;25.17;;
84591;SDS011;74826;50.812;16.038;2024-03-02T15:11:50;75.75;;;28.10;;
84591;SDS011;74826;50.812;16.038;2024-03-02T15:16:41;120.22;;;43.60;;
84591;SDS011;74826;50.812;16.038;2024-03-02T15:21:32;103.95;;;37.75;;
84591;SDS011;74826;50.812;16.038;2024-03-02T15:26:23;79.05;;;32.55;;
84591;SDS011;74826;50.812;16.038;2024-03-02T15:28:49;78.38;;;29.08;;
84591;SDS011;74826;50.812;16.038;2024-03-02T15:33:40;81.30;;;33.67;;
84591;SDS011;74826;50.812;16.038;2024-03-02T15:36:05;82.35;;;31.50;;
84591;SDS011;74826;50.812;16.038;2024-03-02T15:38:31;88.25;;;36.83;;
84591;SDS011;74826;50.812;16.038;2024-03-02T15:40:57;78.65;;;32.80;;
84591;SDS011;74826;50.812;16.038;2024-03-02T15:43:23;72.60;;;28.52;;
84591;SDS011;74826;50.812;16.038;2024-03-02T15:45:49;130.75;;;49.63;;
84591;SDS011;74826;50.812;16.038;2024-03-02T15:50:40;99.40;;;34.05;;
84591;SDS011;74826;50.812;16.038;2024-03-02T15:53:05;73.68;;;29.20;;
84591;SDS011;74826;50.812;16.038;2024-03-02T15:55:32;68.38;;;29.48;;
84591;SDS011;74826;50.812;16.038;2024-03-02T15:57:59;94.25;;;35.63;;
84591;SDS011;74826;50.812;16.038;2024-03-02T16:00:25;76.35;;;27.20;;
84591;SDS011;74826;50.812;16.038;2024-03-02T16:02:50;66.32;;;25.40;;
84591;SDS011;74826;50.812;16.038;2024-03-02T16:05:16;60.47;;;25.55;;
84591;SDS011;74826;50.812;16.038;2024-03-02T16:07:42;65.85;;;24.85;;
84591;SDS011;74826;50.812;16.038;2024-03-02T16:10:07;62.53;;;26.27;;
84591;SDS011;74826;50.812;16.038;2024-03-02T16:12:33;67.07;;;26.88;;
84591;SDS011;74826;50.812;16.038;2024-03-02T16:14:59;62.30;;;26.00;;
84591;SDS011;74826;50.812;16.038;2024-03-02T16:17:24;75.50;;;27.88;;
84591;SDS011;74826;50.812;16.038;2024-03-02T16:19:50;73.03;;;31.55;;
84591;SDS011;74826;50.812;16.038;2024-03-02T16:22:15;81.88;;;31.38;;
84591;SDS011;74826;50.812;16.038;2024-03-02T16:27:05;86.38;;;31.17;;